ADDS METAR Data INFO
IDs: Format: Raw Decoded Include TAF

Data at: 2038 UTC 22 Feb 2018

KPNS 222017Z 13010KT 10SM OVC008 24/21 A3033 RMK AO2 T02390206
KPNS 221953Z COR 12009KT 10SM OVC008 24/20 A3034 RMK AO2 SLP275 T02440200
KPNS 221926Z 13008KT 10SM BKN013 24/20 A3035 RMK AO2 T02440200
KPNS 221853Z 12010KT 8SM CLR 24/19 A3036 RMK AO2 SLP281 T02440194
KPNS 221753Z 13009G18KT 8SM CLR 25/19 A3038 RMK AO2 SLP287 T02500194 10256 20206 58002
KPNS 221653Z 14009KT 10SM CLR 25/19 A3038 RMK AO2 SLP289 T02500189
KPNS 221553Z 12011KT 10SM SCT008 23/19 A3039 RMK AO2 SLP290 T02330194
KPNS 221546Z 12010KT 10SM SCT008 23/20 A3039 RMK AO2 T02330200
KPNS 221453Z 12010KT 5SM BR OVC005 22/21 A3038 RMK AO2 SLP290 T02220206 51014
KPNS 221353Z 12009KT 3SM BR BKN004 OVC017 22/21 A3037 RMK AO2 SLP285 T02170206
KPNS 221253Z COR 12009KT 2SM R17/5000VP6000FT BR OVC002 21/20 A3036 RMK AO2 SLP282 T02110200
KPNS 221153Z 12008KT 1/2SM R17/2000V3000FT FG VV002 21/20 A3034 RMK AO2 SLP277 T02060200 10222 20206 53014
KPNS 221146Z 11006KT 1/2SM R17/2000V2400FT FG VV002 21/20 A3034 RMK AO2 T02060200
KPNS 221125Z 12007KT 1/2SM R17/1600V2000FT FG VV002 21/20 A3033 RMK AO2 T02110200
KPNS 221053Z AUTO 12007KT 1/4SM R17/1400V1600FT FG VV002 21/20 A3032 RMK AO2 SLP269 T02110200
KPNS 221011Z AUTO 13005KT 1/4SM R17/1200FT FG VV002 21/20 A3031 RMK AO2 T02110200
KPNS 221003Z AUTO 13005KT 1/4SM R17/1200V5000FT FG VV002 21/20 A3031 RMK AO2 T02110200
KPNS 220953Z AUTO 12004KT 1 1/4SM R17/3500V6000FT BR OVC002 21/21 A3031 RMK AO2 SLP265 T02110206
KPNS 220947Z AUTO 14005KT 1 3/4SM R17/3500VP6000FT BR OVC002 21/20 A3031 RMK AO2
KPNS 220921Z AUTO 14005KT 4SM BR OVC002 21/20 A3031 RMK AO2 T02110200
KPNS 220913Z AUTO 15006KT 2SM R17/2800VP6000FT BR OVC002 21/20 A3030 RMK AO2 T02110200
KPNS 220900Z AUTO 15004KT 3/4SM R17/2400V3500FT BR OVC002 21/20 A3030 RMK AO2 T02110200
KPNS 220853Z AUTO 14006KT 1SM R17/2600V5500FT BR OVC002 21/20 A3030 RMK AO2 SLP262 T02110200 55010
KPNS 220849Z AUTO 14006KT 1 1/4SM R17/2800VP6000FT BR OVC002 21/20 A3030 RMK AO2
KPNS 220842Z AUTO 15006KT 2SM R17/4500VP6000FT BR OVC002 21/20 A3030 RMK AO2 T02110200
KPNS 220810Z AUTO 12005KT 5SM BR BKN004 BKN009 21/19 A3031 RMK AO2 T02060194
KPNS 220802Z AUTO 13004KT 5SM BR SCT005 21/19 A3031 RMK AO2 T02110194
KPNS 220753Z AUTO 13003KT 6SM BR FEW013 21/20 A3031 RMK AO2 SLP266 T02110200
KPNS 220740Z AUTO 14004KT 6SM BR FEW013 21/20 A3032 RMK AO2 T02110200
KPNS 220725Z AUTO 14005KT 6SM BR SCT004 BKN012 21/19 A3032 RMK AO2 T02060194
KPNS 220653Z AUTO 15005KT 7SM OVC005 22/21 A3033 RMK AO2 CIG 004V009 SLP271 T02170206
KPNS 220622Z AUTO 15006KT 7SM OVC005 22/21 A3033 RMK AO2 T02220206
KPNS 220603Z AUTO 14008KT 7SM OVC004 22/21 A3032 RMK AO2 T02220206
KPNS 220553Z AUTO 14009KT 7SM OVC005 22/21 A3032 RMK AO2 SLP269 T02220206 10228 20222 402560211 50001
KPNS 220453Z AUTO 13009KT 8SM OVC005 22/21 A3033 RMK AO2 SLP270 T02220206
KPNS 220353Z 14011KT 7SM OVC005 23/21 A3033 RMK AO2 SLP270 T02280211
KPNS 212353Z 13011KT 8SM OVC005 23/21 A3027 RMK AO2 SLP252 T02280211 10256 20228 55002
KPNS 212253Z 12010KT 7SM OVC006 23/21 A3027 RMK AO2 CIG 005V009 SLP252 T02280211
KPNS 212153Z 12011KT 8SM BKN008 BKN014 OVC026 24/21 A3027 RMK AO2 SLP253 T02390211
KPNS 212053Z 13012KT 9SM BKN008 BKN014 OVC026 24/21 A3028 RMK AO2 SLP254 T02390211 56013
KPNS 211953Z 14013KT 10SM BKN008 BKN014 OVC021 25/21 A3028 RMK AO2 SLP254 T02500211
KPNS 211853Z 13013G20KT 10SM OVC008 25/21 A3029 RMK AO2 SLP259 T02500211
KPNS 211801Z 14015G20KT 10SM OVC008 24/21 A3031 RMK AO2 T02440206
KPNS 211753Z COR 13011G19KT 10SM OVC008 25/21 A3032 RMK AO2 PK WND 15026/1723 CIG 008V011 SLP267 T02500211 10250 20217 58004
KPNS 211700Z 14011KT 10SM OVC011 24/21 A3033 RMK AO2 CIG 009V014 T02440206
KPNS 211653Z COR 13014KT 10SM OVC011 24/21 A3034 RMK AO2 SLP273 T02440206
KPNS 211553Z 14012KT 10SM BKN009 24/20 A3034 RMK AO2 SLP275 T02390200
KPNS 211517Z 13011G17KT 10SM BKN009 23/20 A3033 RMK AO2 T02330200
KPNS 211453Z 13010KT 10SM BKN012 OVC021 23/20 A3033 RMK AO2 SLP271 T02330200 53010
KPNS 211412Z 12011G20KT 10SM OVC013 23/20 A3032 RMK AO2 T02280200
KPNS 211353Z 12011KT 10SM OVC009 22/20 A3031 RMK AO2 SLP267 T02220200
KPNS 211253Z 11007KT 10SM OVC008 22/19 A3031 RMK AO2 SLP266 T02170194